Time;durP1;ratioP1;P1;durP2;ratioP2;P2;SDS_P1;SDS_P2;PMS_P1;PMS_P2;Temp;Humidity;BMP_temperature;BMP_pressure;BME280_temperature;BME280_humidity;BME280_pressure;Samples;Min_cycle;Max_cycle;Signal;HPM_P1;HPM_P2
2022/02/25 00:01:59;;;;;;;19.07;7.80;;;6.40;99.90;;;;;;4441670;32;20222;-71
2022/02/25 00:04:26;;;;;;;19.23;7.63;;;6.40;99.90;;;;;;4440148;32;20294;-71
2022/02/25 00:06:53;;;;;;;20.40;8.03;;;6.50;99.90;;;;;;4440701;32;20229;-72
2022/02/25 00:09:19;;;;;;;18.97;7.93;;;6.50;99.90;;;;;;4441756;32;20199;-72
2022/02/25 00:11:46;;;;;;;19.93;7.40;;;6.40;99.90;;;;;;4441508;32;20236;-71
2022/02/25 00:14:13;;;;;;;18.53;7.70;;;6.40;99.90;;;;;;4440308;32;20193;-71
2022/02/25 00:16:40;;;;;;;21.00;7.87;;;6.50;99.90;;;;;;4443572;32;20187;-71
2022/02/25 00:19:07;;;;;;;17.20;7.80;;;6.50;99.90;;;;;;4441029;32;20243;-71
2022/02/25 00:21:34;;;;;;;20.73;7.87;;;6.50;99.90;;;;;;4447489;32;20580;-72
2022/02/25 00:24:01;;;;;;;15.60;7.57;;;6.50;99.90;;;;;;4441366;32;20578;-71
2022/02/25 00:26:28;;;;;;;17.27;7.73;;;6.50;99.90;;;;;;4439748;32;20254;-72
2022/02/25 00:28:55;;;;;;;19.33;7.83;;;6.60;99.90;;;;;;4441786;32;20153;-72
2022/02/25 00:31:22;;;;;;;19.93;7.80;;;6.60;99.90;;;;;;4440085;32;20268;-72
2022/02/25 00:33:49;;;;;;;16.83;7.53;;;6.60;99.90;;;;;;4441014;32;20444;-71
2022/02/25 00:36:15;;;;;;;26.07;8.37;;;6.60;99.90;;;;;;4442758;32;20163;-71
2022/02/25 00:38:42;;;;;;;16.50;7.93;;;6.70;99.90;;;;;;4439850;32;20237;-71
2022/02/25 00:41:09;;;;;;;19.20;7.53;;;6.70;99.90;;;;;;4441448;32;20463;-71
2022/02/25 00:43:36;;;;;;;18.23;7.37;;;6.70;99.90;;;;;;4441435;32;20237;-70
2022/02/25 00:46:03;;;;;;;16.40;7.43;;;6.70;99.90;;;;;;4439527;32;20178;-71
2022/02/25 00:48:30;;;;;;;18.63;7.67;;;6.80;99.90;;;;;;4440947;32;20428;-71
2022/02/25 00:50:57;;;;;;;22.30;8.10;;;6.80;99.90;;;;;;4439195;32;20589;-72
2022/02/25 00:53:23;;;;;;;19.00;8.27;;;6.80;99.90;;;;;;4439721;32;20179;-74
2022/02/25 00:55:50;;;;;;;16.43;7.17;;;6.90;99.90;;;;;;4441470;32;20204;-75
2022/02/25 00:58:17;;;;;;;18.20;7.70;;;6.90;99.90;;;;;;4440013;32;20170;-74
2022/02/25 01:00:44;;;;;;;17.47;7.43;;;6.90;99.90;;;;;;4440824;32;20214;-74
2022/02/25 01:03:11;;;;;;;18.10;7.27;;;6.90;99.90;;;;;;4441948;32;20212;-74
2022/02/25 01:05:38;;;;;;;18.37;7.17;;;7.00;99.90;;;;;;4439359;32;20182;-74
2022/02/25 01:08:07;;;;;;;17.43;6.70;;;6.90;99.90;;;;;;4440952;32;20210;-74
2022/02/25 01:10:36;;;;;;;15.70;6.63;;;6.90;99.90;;;;;;4440937;32;20183;-74
2022/02/25 01:13:04;;;;;;;17.73;7.60;;;6.90;99.90;;;;;;4439650;32;20187;-74
2022/02/25 01:15:32;;;;;;;18.37;7.40;;;6.90;99.90;;;;;;4441008;32;20219;-74
2022/02/25 01:17:58;;;;;;;19.07;7.33;;;7.00;99.90;;;;;;4439590;32;20185;-74
2022/02/25 01:20:24;;;;;;;16.17;6.60;;;7.00;99.90;;;;;;4428604;32;20223;-74
2022/02/25 01:22:51;;;;;;;15.93;6.90;;;7.00;99.90;;;;;;4439068;32;20196;-73
2022/02/25 01:25:19;;;;;;;17.63;7.40;;;7.00;99.90;;;;;;4439324;32;20225;-74
2022/02/25 01:27:46;;;;;;;20.23;7.10;;;7.00;99.90;;;;;;4448877;32;20435;-74
2022/02/25 01:30:13;;;;;;;17.47;7.10;;;7.10;99.90;;;;;;4439430;32;20247;-74
2022/02/25 01:32:40;;;;;;;15.23;6.57;;;7.20;99.90;;;;;;4446175;32;20183;-74
2022/02/25 01:35:08;;;;;;;16.73;7.20;;;7.20;99.90;;;;;;4441429;32;20232;-74
2022/02/25 01:37:34;;;;;;;18.03;7.20;;;7.20;99.90;;;;;;4440814;32;20274;-75
2022/02/25 01:40:01;;;;;;;14.70;6.73;;;7.30;99.90;;;;;;4441812;32;20181;-74
2022/02/25 01:42:28;;;;;;;14.83;6.47;;;7.30;99.90;;;;;;4438640;32;20195;-74
2022/02/25 01:44:55;;;;;;;18.87;7.53;;;7.30;99.90;;;;;;4440760;32;20517;-74
2022/02/25 01:47:22;;;;;;;17.13;7.10;;;7.30;99.90;;;;;;4442507;32;20492;-74
2022/02/25 01:49:49;;;;;;;15.73;6.90;;;7.30;99.90;;;;;;4442283;32;20185;-74
2022/02/25 01:52:18;;;;;;;16.43;6.80;;;7.30;99.90;;;;;;4440682;32;20217;-75
2022/02/25 01:54:47;;;;;;;16.73;6.83;;;7.30;99.90;;;;;;4442416;32;20203;-74
2022/02/25 01:57:16;;;;;;;15.40;6.70;;;7.30;99.90;;;;;;4442467;32;20171;-74
2022/02/25 01:59:43;;;;;;;14.87;6.67;;;7.30;99.90;;;;;;4440583;32;20171;-74
2022/02/25 02:02:10;;;;;;;17.07;6.90;;;7.30;99.90;;;;;;4441898;32;20196;-74
2022/02/25 02:04:39;;;;;;;18.70;7.00;;;7.30;99.90;;;;;;4454777;32;20142;-74
2022/02/25 02:07:06;;;;;;;16.93;6.73;;;7.40;99.90;;;;;;4440229;32;20204;-74
2022/02/25 02:09:33;;;;;;;16.80;6.53;;;7.40;99.90;;;;;;4442461;32;20196;-74
2022/02/25 02:12:00;;;;;;;18.63;6.67;;;7.30;99.90;;;;;;4441218;32;20217;-74
2022/02/25 02:14:27;;;;;;;15.67;6.30;;;7.30;99.90;;;;;;4441011;32;20184;-74
2022/02/25 02:16:56;;;;;;;14.90;6.47;;;7.40;99.90;;;;;;4442863;32;20191;-74
2022/02/25 02:19:25;;;;;;;16.37;6.53;;;7.40;99.90;;;;;;4440733;32;20232;-74
2022/02/25 02:21:56;;;;;;;14.90;6.60;;;7.40;99.90;;;;;;4440766;32;20233;-74
2022/02/25 02:24:23;;;;;;;15.50;7.03;;;7.30;99.90;;;;;;4442551;32;20193;-74
2022/02/25 02:26:52;;;;;;;13.70;6.63;;;7.30;99.90;;;;;;4441153;32;20208;-74
2022/02/25 02:29:20;;;;;;;16.47;6.97;;;7.30;99.90;;;;;;4440525;32;20235;-74
2022/02/25 02:31:47;;;;;;;17.43;6.67;;;7.20;99.90;;;;;;4440276;32;20579;-74
2022/02/25 02:34:16;;;;;;;17.67;6.60;;;7.20;99.90;;;;;;4446368;32;20183;-74
2022/02/25 02:36:43;;;;;;;14.33;6.63;;;7.20;99.90;;;;;;4449134;32;20205;-74
2022/02/25 02:39:11;;;;;;;17.80;6.53;;;7.20;99.90;;;;;;4455080;32;20200;-74
2022/02/25 02:41:39;;;;;;;13.50;6.43;;;7.10;99.90;;;;;;4453088;32;20446;-74
2022/02/25 02:44:06;;;;;;;18.87;6.83;;;7.10;99.90;;;;;;4441206;32;20224;-74
2022/02/25 02:46:33;;;;;;;15.53;6.40;;;7.00;99.90;;;;;;4453884;32;20180;-74
2022/02/25 02:49:04;;;;;;;16.93;6.80;;;7.00;99.90;;;;;;4454113;32;20233;-74
2022/02/25 02:51:31;;;;;;;14.60;6.23;;;7.00;99.90;;;;;;4455064;32;20178;-74
2022/02/25 02:53:58;;;;;;;16.80;6.70;;;7.00;99.90;;;;;;4454756;32;20150;-74
2022/02/25 02:56:26;;;;;;;17.67;6.77;;;6.90;99.90;;;;;;4455040;32;20355;-74
2022/02/25 02:58:56;;;;;;;18.93;7.00;;;6.90;99.90;;;;;;4454860;32;20196;-74
2022/02/25 03:01:29;;;;;;;18.27;6.70;;;6.90;99.90;;;;;;4451202;32;20438;-74
2022/02/25 03:03:58;;;;;;;15.00;6.93;;;6.90;99.90;;;;;;4440528;32;20235;-74
2022/02/25 03:06:27;;;;;;;14.50;6.27;;;6.80;99.90;;;;;;4393806;32;20208;-74
2022/02/25 03:08:55;;;;;;;16.63;6.47;;;6.80;99.90;;;;;;4406828;32;20166;-74
2022/02/25 03:11:22;;;;;;;14.23;6.13;;;6.80;99.90;;;;;;4394558;32;20230;-74
2022/02/25 03:13:49;;;;;;;14.20;6.50;;;6.80;99.90;;;;;;4395790;32;20204;-74
2022/02/25 03:16:16;;;;;;;13.90;6.60;;;6.80;99.90;;;;;;4398264;32;20216;-74
2022/02/25 03:18:43;;;;;;;15.37;6.07;;;6.80;99.90;;;;;;4396784;32;20461;-74
2022/02/25 03:21:11;;;;;;;13.77;5.80;;;6.80;99.90;;;;;;4398563;32;20171;-74
2022/02/25 03:23:38;;;;;;;15.27;6.40;;;6.80;99.90;;;;;;4401138;32;20297;-74
2022/02/25 03:26:07;;;;;;;17.53;6.10;;;6.70;99.90;;;;;;4442190;32;20172;-74
2022/02/25 03:28:34;;;;;;;14.63;6.70;;;6.70;99.90;;;;;;4440879;32;20253;-74
2022/02/25 03:31:00;;;;;;;13.83;5.90;;;6.60;99.90;;;;;;4442826;32;20259;-74
2022/02/25 03:33:27;;;;;;;13.57;5.90;;;6.60;99.90;;;;;;4440270;32;20213;-74
2022/02/25 03:35:54;;;;;;;16.00;6.37;;;6.50;99.90;;;;;;4442224;32;20226;-74
2022/02/25 03:38:23;;;;;;;12.13;5.83;;;6.50;99.90;;;;;;4441000;32;20196;-74
2022/02/25 03:40:50;;;;;;;16.40;5.93;;;6.50;99.90;;;;;;4440757;32;20184;-74
2022/02/25 03:43:17;;;;;;;16.20;6.43;;;6.40;99.90;;;;;;4442117;32;20191;-74
2022/02/25 03:45:44;;;;;;;13.83;6.30;;;6.40;99.90;;;;;;4443565;32;20428;-74
2022/02/25 03:48:11;;;;;;;15.17;5.93;;;6.30;99.90;;;;;;4441053;32;20255;-74
2022/02/25 03:50:39;;;;;;;16.70;6.47;;;6.30;99.90;;;;;;4441938;32;20193;-74
2022/02/25 03:53:06;;;;;;;13.37;6.47;;;6.30;99.90;;;;;;4442565;32;20204;-74
2022/02/25 03:55:33;;;;;;;16.30;6.20;;;6.30;99.90;;;;;;4440885;32;20500;-74
2022/02/25 03:58:00;;;;;;;12.80;5.93;;;6.30;99.90;;;;;;4442001;32;20180;-74
2022/02/25 04:00:28;;;;;;;13.70;6.30;;;6.30;99.90;;;;;;4440256;32;20233;-75
2022/02/25 04:02:56;;;;;;;14.50;6.23;;;6.30;99.90;;;;;;4441931;32;20472;-74
2022/02/25 04:05:24;;;;;;;13.73;6.23;;;6.40;99.90;;;;;;4441044;32;20226;-74
2022/02/25 04:07:53;;;;;;;15.97;6.10;;;6.30;99.90;;;;;;4440491;32;20166;-74
2022/02/25 04:10:20;;;;;;;14.90;6.10;;;6.30;99.90;;;;;;4442128;32;20174;-74
2022/02/25 04:12:47;;;;;;;14.77;6.60;;;6.40;99.90;;;;;;4442489;32;20166;-74
2022/02/25 04:15:19;;;;;;;12.20;6.17;;;6.40;99.90;;;;;;4440352;32;20228;-74
2022/02/25 04:17:46;;;;;;;13.63;6.10;;;6.40;99.90;;;;;;4441992;32;20258;-74
2022/02/25 04:20:13;;;;;;;15.00;6.23;;;6.40;99.90;;;;;;4440284;32;20548;-74
2022/02/25 04:22:40;;;;;;;14.60;6.20;;;6.30;99.90;;;;;;4443267;32;20156;-74
2022/02/25 04:25:07;;;;;;;15.43;6.27;;;6.30;99.90;;;;;;4441417;32;20144;-74
2022/02/25 04:27:34;;;;;;;14.43;6.47;;;6.30;99.90;;;;;;4443450;32;20151;-74
2022/02/25 04:30:01;;;;;;;15.87;6.70;;;6.20;99.90;;;;;;4439974;32;20191;-74
2022/02/25 04:32:28;;;;;;;15.27;6.57;;;6.20;99.90;;;;;;4442022;32;20228;-74
2022/02/25 04:34:55;;;;;;;14.33;6.43;;;6.10;99.90;;;;;;4439881;32;20209;-74
2022/02/25 04:37:22;;;;;;;15.60;6.50;;;6.10;99.90;;;;;;4440502;32;20209;-74
2022/02/25 04:39:48;;;;;;;12.13;5.90;;;6.10;99.90;;;;;;4443271;32;20200;-74
2022/02/25 04:42:16;;;;;;;15.50;6.00;;;6.10;99.90;;;;;;4439303;32;20247;-74
2022/02/25 04:44:43;;;;;;;12.77;6.13;;;6.10;99.90;;;;;;4441191;32;20165;-74
2022/02/25 04:47:10;;;;;;;14.37;5.83;;;6.10;99.90;;;;;;4441553;32;20194;-74
2022/02/25 04:49:37;;;;;;;12.63;5.80;;;6.10;99.90;;;;;;4440107;32;20199;-74
2022/02/25 04:52:04;;;;;;;14.47;5.33;;;6.20;99.90;;;;;;4440640;32;20167;-74
2022/02/25 04:54:31;;;;;;;11.60;5.40;;;6.20;99.90;;;;;;4440281;32;20218;-74
2022/02/25 04:56:58;;;;;;;10.70;5.13;;;6.20;99.90;;;;;;4441076;32;20208;-74
2022/02/25 04:59:25;;;;;;;15.27;5.83;;;6.20;99.90;;;;;;4439824;32;20191;-74
2022/02/25 05:01:51;;;;;;;13.17;5.73;;;6.20;99.90;;;;;;4440919;32;20198;-74
2022/02/25 05:04:18;;;;;;;14.33;5.30;;;6.20;99.90;;;;;;4442287;32;20181;-74
2022/02/25 05:06:45;;;;;;;12.33;6.10;;;6.20;99.90;;;;;;4441804;32;20162;-74
2022/02/25 05:09:12;;;;;;;16.13;5.47;;;6.20;99.90;;;;;;4440352;32;20233;-75
2022/02/25 05:11:41;;;;;;;13.07;5.23;;;6.20;99.90;;;;;;4440753;32;20179;-75
2022/02/25 05:20:15;;;;;;;9.13;4.87;;;6.30;99.90;;;;;;4441238;32;20172;-74
2022/02/25 05:22:28;;;;;;;2.77;1.60;;;6.60;99.90;;;;;;4440875;32;20166;-75
2022/02/25 05:24:55;;;;;;;2.93;1.50;;;6.80;99.90;;;;;;4440320;32;20169;-75
2022/02/25 05:27:22;;;;;;;3.20;1.40;;;6.80;99.90;;;;;;4441089;32;20182;-75
2022/02/25 05:29:49;;;;;;;1.60;0.97;;;6.70;99.90;;;;;;4438895;32;20566;-75
2022/02/25 05:32:17;;;;;;;1.10;0.80;;;6.60;99.90;;;;;;4440463;32;20186;-74
2022/02/25 05:34:43;;;;;;;0.97;0.90;;;6.50;99.90;;;;;;4441625;32;20443;-74
2022/02/25 05:37:10;;;;;;;1.10;1.00;;;6.50;99.90;;;;;;4439250;32;20581;-74
2022/02/25 05:39:37;;;;;;;1.20;1.07;;;6.40;99.90;;;;;;4440106;32;20573;-74
2022/02/25 05:42:04;;;;;;;1.30;0.90;;;6.30;99.90;;;;;;4439679;32;20249;-73
2022/02/25 05:44:31;;;;;;;1.20;1.10;;;6.30;99.90;;;;;;4438995;32;20193;-74
2022/02/25 05:46:58;;;;;;;1.60;1.20;;;6.30;99.90;;;;;;4439344;32;20201;-74
2022/02/25 05:49:25;;;;;;;1.60;1.13;;;6.20;99.90;;;;;;4440254;32;20187;-73
2022/02/25 05:51:52;;;;;;;1.03;1.00;;;6.20;99.90;;;;;;4440797;32;20516;-74
2022/02/25 05:54:19;;;;;;;1.17;1.07;;;6.10;99.90;;;;;;4439849;32;20495;-74
2022/02/25 05:56:46;;;;;;;1.20;1.10;;;6.00;99.90;;;;;;4439094;32;20433;-74
2022/02/25 05:59:12;;;;;;;1.20;1.10;;;6.00;99.90;;;;;;4438897;32;20209;-74
2022/02/25 06:01:39;;;;;;;1.00;0.90;;;5.90;99.90;;;;;;4440420;32;20197;-74
2022/02/25 06:04:06;;;;;;;2.50;1.20;;;5.90;99.90;;;;;;4452771;32;20229;-73
2022/02/25 06:06:34;;;;;;;2.03;1.07;;;5.90;99.90;;;;;;4455098;32;20181;-73
2022/02/25 06:09:02;;;;;;;1.80;1.00;;;5.80;99.90;;;;;;4455605;32;20173;-73
2022/02/25 06:11:28;;;;;;;1.90;0.90;;;5.80;99.90;;;;;;4456832;32;20183;-73
2022/02/25 06:13:57;;;;;;;1.80;1.00;;;5.70;99.90;;;;;;4454754;32;20173;-73
2022/02/25 06:16:24;;;;;;;1.30;1.20;;;5.60;99.90;;;;;;4455849;32;20576;-74
2022/02/25 06:18:51;;;;;;;1.77;1.20;;;5.50;99.90;;;;;;4453961;32;20440;-74
2022/02/25 06:21:18;;;;;;;1.10;1.00;;;5.60;99.90;;;;;;4453973;32;20174;-74
2022/02/25 06:23:45;;;;;;;2.37;1.10;;;5.50;99.90;;;;;;4454843;32;20208;-74
2022/02/25 06:26:12;;;;;;;2.07;1.47;;;5.50;99.90;;;;;;4453793;32;20194;-74
2022/02/25 06:28:39;;;;;;;1.73;1.40;;;5.50;99.90;;;;;;4455420;32;20593;-73
2022/02/25 06:31:06;;;;;;;1.70;1.50;;;5.50;99.90;;;;;;4455452;32;20544;-74
2022/02/25 06:33:33;;;;;;;2.93;1.43;;;5.50;99.90;;;;;;4453568;32;20199;-74
2022/02/25 06:36:01;;;;;;;1.57;1.40;;;5.60;99.90;;;;;;4453790;32;20537;-74
2022/02/25 06:38:27;;;;;;;2.87;1.30;;;5.60;99.90;;;;;;4449044;32;20179;-74
2022/02/25 06:40:55;;;;;;;2.97;1.50;;;5.60;99.90;;;;;;4440072;32;20203;-74
2022/02/25 06:43:21;;;;;;;1.50;1.40;;;5.60;99.90;;;;;;4439146;32;20188;-73
2022/02/25 06:45:48;;;;;;;2.17;1.40;;;5.60;99.90;;;;;;4439466;32;20193;-73
2022/02/25 06:48:15;;;;;;;1.73;1.40;;;5.50;99.90;;;;;;4438856;32;20178;-73
2022/02/25 06:50:43;;;;;;;2.00;1.50;;;5.50;99.90;;;;;;4440598;32;20145;-73
2022/02/25 06:53:10;;;;;;;2.47;1.80;;;5.50;99.90;;;;;;4439029;32;20239;-73
2022/02/25 06:55:37;;;;;;;3.70;1.50;;;5.60;99.90;;;;;;4439738;32;20241;-73
2022/02/25 06:58:06;;;;;;;2.27;1.43;;;5.60;99.90;;;;;;4437952;32;20198;-73
2022/02/25 07:00:34;;;;;;;1.83;1.50;;;5.60;99.90;;;;;;4438090;32;20183;-73
2022/02/25 07:03:02;;;;;;;3.23;1.63;;;5.60;99.90;;;;;;4437989;32;20171;-73
2022/02/25 07:05:30;;;;;;;3.90;2.00;;;5.50;99.90;;;;;;4439112;32;20498;-73
2022/02/25 07:07:57;;;;;;;2.40;1.80;;;5.60;99.90;;;;;;4439140;32;20222;-74
2022/02/25 07:10:29;;;;;;;2.27;1.53;;;5.60;99.90;;;;;;4440541;32;20140;-73
2022/02/25 07:12:56;;;;;;;2.50;1.70;;;5.60;99.90;;;;;;4437662;32;20191;-73
2022/02/25 07:15:23;;;;;;;3.60;1.60;;;5.60;99.90;;;;;;4438692;32;20202;-73
2022/02/25 07:17:49;;;;;;;2.23;1.70;;;5.60;99.90;;;;;;4439739;32;20160;-73
2022/02/25 07:20:16;;;;;;;4.80;1.97;;;5.60;99.90;;;;;;4439271;32;20140;-74
2022/02/25 07:22:46;;;;;;;2.03;1.80;;;5.60;99.90;;;;;;4437544;32;20199;-73
2022/02/25 07:25:14;;;;;;;2.10;1.70;;;5.60;99.90;;;;;;4424790;32;20183;-73
2022/02/25 07:27:41;;;;;;;2.57;1.60;;;5.60;99.90;;;;;;4437999;32;20203;-73
2022/02/25 07:30:09;;;;;;;2.17;1.80;;;5.60;99.90;;;;;;4439563;32;20236;-71
2022/02/25 07:32:36;;;;;;;2.90;2.07;;;5.70;99.90;;;;;;4438693;32;20191;-73
2022/02/25 07:35:06;;;;;;;5.17;2.10;;;5.70;99.90;;;;;;4438818;32;20183;-73
2022/02/25 07:37:33;;;;;;;3.93;2.00;;;5.70;99.90;;;;;;4447557;32;20482;-73
2022/02/25 07:40:00;;;;;;;2.57;2.00;;;5.60;99.90;;;;;;4425644;32;20394;-73
2022/02/25 07:42:28;;;;;;;2.67;1.87;;;5.70;99.90;;;;;;4439292;32;20237;-73
2022/02/25 07:44:55;;;;;;;3.97;2.03;;;5.70;99.90;;;;;;4439026;32;20499;-73
2022/02/25 07:47:24;;;;;;;2.70;1.90;;;5.60;99.90;;;;;;4424885;32;20163;-74
2022/02/25 07:49:51;;;;;;;4.67;2.00;;;5.60;99.90;;;;;;4437373;32;20448;-73
2022/02/25 07:52:18;;;;;;;2.77;2.00;;;5.70;99.90;;;;;;4437895;32;20542;-74
2022/02/25 07:54:45;;;;;;;5.20;2.70;;;5.70;99.90;;;;;;4439521;32;20483;-74
2022/02/25 07:57:13;;;;;;;3.00;2.30;;;5.60;99.90;;;;;;4437603;32;20236;-73
2022/02/25 07:59:41;;;;;;;2.83;2.13;;;5.50;99.90;;;;;;4440467;32;20163;-73
2022/02/25 08:02:09;;;;;;;3.47;2.23;;;5.50;99.90;;;;;;4439642;32;20216;-73
2022/02/25 08:04:36;;;;;;;4.47;2.30;;;5.40;99.90;;;;;;4440607;32;20217;-73
2022/02/25 08:07:23;;;;;;;2.23;1.93;;;5.40;99.90;;;;;;4441662;32;20205;-72
2022/02/25 08:09:50;;;;;;;3.53;2.40;;;5.70;99.90;;;;;;4441178;32;20631;-73
2022/02/25 08:12:17;;;;;;;4.77;2.10;;;5.90;99.90;;;;;;4440222;32;20545;-74
2022/02/25 08:14:44;;;;;;;5.80;2.37;;;5.90;99.90;;;;;;4441512;32;20441;-74
2022/02/25 08:17:11;;;;;;;3.57;2.33;;;5.90;99.90;;;;;;4441532;32;20197;-73
2022/02/25 08:19:38;;;;;;;2.50;1.90;;;5.80;99.90;;;;;;4439926;32;20238;-74
2022/02/25 08:22:04;;;;;;;3.27;1.87;;;5.60;99.90;;;;;;4442076;32;20191;-74
2022/02/25 08:24:32;;;;;;;2.60;1.43;;;5.40;99.90;;;;;;4444012;32;20565;-74
2022/02/25 08:26:59;;;;;;;2.13;1.17;;;5.30;99.90;;;;;;4450388;32;20182;-74
2022/02/25 08:29:26;;;;;;;1.60;0.97;;;5.20;99.90;;;;;;4455318;32;20224;-74
2022/02/25 08:31:53;;;;;;;1.83;0.90;;;5.10;99.90;;;;;;4456604;32;20477;-73
2022/02/25 08:34:20;;;;;;;3.33;1.00;;;4.90;99.90;;;;;;4454754;32;20529;-74
2022/02/25 08:36:48;;;;;;;3.07;1.27;;;4.90;99.90;;;;;;4454782;32;20198;-74
2022/02/25 08:39:14;;;;;;;6.03;1.10;;;4.90;99.90;;;;;;4457036;32;20221;-74
2022/02/25 08:41:41;;;;;;;2.93;1.00;;;4.90;99.90;;;;;;4454817;32;20239;-74
2022/02/25 08:44:08;;;;;;;2.70;1.10;;;4.90;99.90;;;;;;4456153;32;20224;-73
2022/02/25 08:46:37;;;;;;;2.27;1.20;;;5.00;99.90;;;;;;4454876;32;20183;-74
2022/02/25 08:49:05;;;;;;;2.33;1.20;;;5.00;99.90;;;;;;4456569;32;20500;-74
2022/02/25 08:51:32;;;;;;;2.43;1.20;;;5.10;99.90;;;;;;4456052;32;20192;-74
2022/02/25 08:54:00;;;;;;;2.93;1.33;;;5.00;99.90;;;;;;4455824;32;20181;-74
2022/02/25 08:56:27;;;;;;;3.63;1.30;;;5.10;99.90;;;;;;4455060;32;20439;-74
2022/02/25 08:58:53;;;;;;;3.03;1.60;;;5.10;99.90;;;;;;4455188;32;20195;-74
2022/02/25 09:01:22;;;;;;;3.53;1.10;;;5.10;99.90;;;;;;4454378;32;20202;-74
2022/02/25 09:03:50;;;;;;;2.73;1.10;;;5.20;99.90;;;;;;4455746;32;20146;-73
2022/02/25 09:06:17;;;;;;;2.47;1.30;;;5.20;99.90;;;;;;4454641;32;20199;-73
2022/02/25 09:08:44;;;;;;;3.40;1.30;;;5.20;99.90;;;;;;4455287;32;20209;-73
2022/02/25 09:11:11;;;;;;;2.40;1.20;;;5.30;99.90;;;;;;4455057;32;20215;-73
2022/02/25 09:13:39;;;;;;;2.47;1.50;;;5.40;99.90;;;;;;4454640;32;20235;-73
2022/02/25 09:16:08;;;;;;;2.60;1.13;;;5.40;99.90;;;;;;4456118;32;20205;-72
2022/02/25 09:18:35;;;;;;;3.53;1.10;;;5.50;99.90;;;;;;4454652;32;20180;-73
2022/02/25 09:21:02;;;;;;;4.80;1.13;;;5.60;99.90;;;;;;4455394;32;20207;-73
2022/02/25 09:23:29;;;;;;;2.50;1.10;;;6.10;99.90;;;;;;4455737;32;20195;-70
2022/02/25 09:25:57;;;;;;;3.23;1.30;;;6.10;99.90;;;;;;4456040;32;20197;-73
2022/02/25 09:28:24;;;;;;;3.10;1.10;;;6.00;99.90;;;;;;4455838;32;20199;-72
2022/02/25 09:30:52;;;;;;;2.00;1.00;;;5.80;99.90;;;;;;4456926;32;20168;-73
2022/02/25 09:33:20;;;;;;;1.90;1.10;;;5.60;99.90;;;;;;4454817;32;20171;-72
2022/02/25 09:35:47;;;;;;;2.00;1.10;;;5.50;99.90;;;;;;4455508;32;20213;-72
2022/02/25 09:38:14;;;;;;;2.13;1.10;;;5.70;99.90;;;;;;4453987;32;20256;-74
2022/02/25 09:40:41;;;;;;;1.97;1.20;;;5.70;99.90;;;;;;4453686;32;20190;-73
2022/02/25 09:43:08;;;;;;;2.27;1.17;;;5.70;99.90;;;;;;4454148;32;20199;-71
2022/02/25 09:45:36;;;;;;;1.50;1.13;;;5.70;99.90;;;;;;4456194;32;20166;-73
2022/02/25 09:48:03;;;;;;;2.70;1.30;;;5.60;99.90;;;;;;4454344;32;20177;-72
2022/02/25 09:50:30;;;;;;;3.87;1.27;;;5.50;99.90;;;;;;4453729;32;20181;-73
2022/02/25 09:52:57;;;;;;;2.73;1.20;;;5.50;99.90;;;;;;4441594;32;20413;-73
2022/02/25 09:55:30;;;;;;;1.67;1.20;;;5.70;99.90;;;;;;4455487;32;20164;-72
2022/02/25 09:58:00;;;;;;;1.63;1.07;;;5.90;99.90;;;;;;4453556;32;20193;-73
2022/02/25 10:00:29;;;;;;;3.10;1.30;;;6.10;99.90;;;;;;4455149;32;20314;-75
2022/02/25 10:03:00;;;;;;;3.23;1.27;;;6.40;99.90;;;;;;4441076;32;20434;-73
2022/02/25 10:05:29;;;;;;;2.70;1.30;;;6.50;99.90;;;;;;4455400;32;20180;-72
2022/02/25 10:08:10;;;;;;;1.80;1.13;;;6.60;99.90;;;;;;4454224;32;20249;-72
2022/02/25 10:10:54;;;;;;;3.93;1.20;;;6.60;99.90;;;;;;4456568;32;20534;-72
2022/02/25 10:13:26;;;;;;;3.87;1.23;;;6.40;99.90;;;;;;4455070;32;20541;-73
2022/02/25 10:16:13;;;;;;;3.20;1.20;;;6.20;99.90;;;;;;4453771;32;20238;-73
2022/02/25 10:18:40;;;;;;;2.23;1.10;;;6.20;99.90;;;;;;4454242;32;20201;-75
2022/02/25 10:21:13;;;;;;;3.80;1.30;;;5.80;99.90;;;;;;4455367;32;20238;-73
2022/02/25 10:23:47;;;;;;;3.03;1.20;;;5.70;99.90;;;;;;4453466;32;20187;-73
2022/02/25 10:26:20;;;;;;;2.40;1.20;;;5.60;99.90;;;;;;4454532;32;20181;-73
2022/02/25 10:28:48;;;;;;;2.27;1.10;;;5.60;99.90;;;;;;4453330;32;20390;-73
2022/02/25 10:31:29;;;;;;;3.53;1.07;;;5.60;99.90;;;;;;4455746;32;20535;-73
2022/02/25 10:34:04;;;;;;;3.10;1.30;;;5.60;99.90;;;;;;4453539;32;20510;-73
2022/02/25 10:36:49;;;;;;;2.60;1.10;;;5.60;99.90;;;;;;4454356;32;20507;-73
2022/02/25 10:39:17;;;;;;;3.80;1.20;;;5.90;99.90;;;;;;4455021;32;20150;-73
2022/02/25 10:42:06;;;;;;;6.73;1.30;;;6.50;99.90;;;;;;4453293;32;20219;-72
2022/02/25 10:44:44;;;;;;;7.43;1.50;;;7.20;99.90;;;;;;4453004;32;20175;-73
2022/02/25 10:47:16;;;;;;;4.43;1.40;;;7.20;99.90;;;;;;4454370;32;20244;-73
2022/02/25 10:49:44;;;;;;;3.70;1.10;;;7.40;99.90;;;;;;4453089;32;20177;-74
2022/02/25 10:52:29;;;;;;;2.47;1.10;;;8.10;99.90;;;;;;4455448;32;20165;-73
2022/02/25 10:54:58;;;;;;;4.40;1.20;;;8.80;99.90;;;;;;4454843;32;20185;-75
2022/02/25 10:57:26;;;;;;;3.57;1.10;;;9.40;99.50;;;;;;4453251;32;20198;-73
2022/02/25 10:59:55;;;;;;;4.10;1.30;;;9.10;99.00;;;;;;4455069;32;20174;-73
2022/02/25 11:02:34;;;;;;;3.67;1.33;;;8.90;98.70;;;;;;4456594;32;20143;-73
2022/02/25 11:05:12;;;;;;;5.90;1.73;;;9.00;98.80;;;;;;4454542;32;20219;-74
2022/02/25 11:07:41;;;;;;;4.07;1.50;;;8.80;99.90;;;;;;4452914;32;20201;-73
2022/02/25 11:10:10;;;;;;;4.30;1.53;;;8.10;99.90;;;;;;4454734;32;20197;-74
2022/02/25 11:12:40;;;;;;;3.40;1.50;;;7.80;99.90;;;;;;4454722;32;20196;-74
2022/02/25 11:15:12;;;;;;;3.13;1.40;;;8.00;99.90;;;;;;4453263;32;20178;-74
2022/02/25 11:17:41;;;;;;;3.80;1.43;;;8.40;99.90;;;;;;4442366;32;20196;-74
2022/02/25 11:20:21;;;;;;;3.40;1.47;;;8.10;99.90;;;;;;4455126;32;20208;-74
2022/02/25 11:22:59;;;;;;;6.00;1.70;;;8.00;99.90;;;;;;4455927;32;20177;-73
2022/02/25 11:25:27;;;;;;;3.07;1.50;;;7.70;99.90;;;;;;4453148;32;20201;-74
2022/02/25 11:27:55;;;;;;;3.93;1.33;;;7.70;99.90;;;;;;4453720;32;20204;-74
2022/02/25 11:30:47;;;;;;;3.97;1.50;;;8.40;99.90;;;;;;4452649;32;20201;-74
2022/02/25 11:33:18;;;;;;;6.20;1.60;;;8.80;99.90;;;;;;4453607;32;20212;-74
2022/02/25 11:35:53;;;;;;;4.63;1.40;;;8.80;99.50;;;;;;4456715;32;20208;-73
2022/02/25 11:38:42;;;;;;;4.33;1.47;;;9.10;97.40;;;;;;4443327;32;20178;-73
2022/02/25 11:41:18;;;;;;;5.00;1.47;;;10.30;94.30;;;;;;4457800;32;20169;-74
2022/02/25 11:43:46;;;;;;;5.07;1.60;;;10.50;92.60;;;;;;4455561;32;20473;-73
2022/02/25 11:46:29;;;;;;;6.77;1.53;;;10.50;91.00;;;;;;4456395;32;20396;-73
2022/02/25 11:49:01;;;;;;;5.20;1.70;;;11.20;87.40;;;;;;4457409;32;20238;-73
2022/02/25 11:51:37;;;;;;;5.87;1.50;;;10.90;85.60;;;;;;4457780;32;20177;-73
2022/02/25 11:54:20;;;;;;;5.23;1.50;;;10.40;89.90;;;;;;4457268;32;20177;-74
2022/02/25 11:56:56;;;;;;;4.50;1.70;;;9.40;94.10;;;;;;4457820;32;20197;-73
2022/02/25 11:59:24;;;;;;;4.73;1.70;;;10.60;91.70;;;;;;4458938;32;20141;-73
2022/02/25 12:02:18;;;;;;;6.03;1.73;;;10.60;90.50;;;;;;4457804;32;20451;-74
2022/02/25 12:04:55;;;;;;;4.83;1.60;;;9.50;92.50;;;;;;4458453;32;20187;-74
2022/02/25 12:07:37;;;;;;;3.93;1.50;;;9.10;94.10;;;;;;4456233;32;20232;-74
2022/02/25 12:10:13;;;;;;;4.70;1.60;;;9.30;94.50;;;;;;4457290;32;20186;-73
2022/02/25 12:12:41;;;;;;;4.13;1.53;;;10.40;93.00;;;;;;4455135;32;20235;-74
2022/02/25 12:15:21;;;;;;;3.40;1.80;;;11.90;84.30;;;;;;4457399;32;20149;-74
2022/02/25 12:18:02;;;;;;;6.57;1.80;;;12.60;78.70;;;;;;4456863;32;20231;-74
2022/02/25 12:20:52;;;;;;;6.63;1.70;;;14.00;73.50;;;;;;4455065;32;20204;-73
2022/02/25 12:23:21;;;;;;;4.10;1.40;;;15.10;63.40;;;;;;4456535;32;20149;-73
2022/02/25 12:25:55;;;;;;;3.07;1.43;;;15.40;59.30;;;;;;4455766;32;20475;-72
2022/02/25 12:28:31;;;;;;;5.27;1.70;;;15.60;56.20;;;;;;4455541;32;20200;-73
2022/02/25 12:31:02;;;;;;;4.27;1.50;;;13.50;58.20;;;;;;4455387;32;20186;-72
2022/02/25 12:33:41;;;;;;;5.23;1.70;;;11.50;65.80;;;;;;4454890;32;20200;-72
2022/02/25 12:36:13;;;;;;;6.97;1.57;;;11.20;72.00;;;;;;4457404;32;20205;-73
2022/02/25 12:38:49;;;;;;;5.10;1.80;;;12.20;70.10;;;;;;4455057;32;20224;-73
2022/02/25 12:41:22;;;;;;;4.40;1.87;;;13.10;68.40;;;;;;4455224;32;20204;-72
2022/02/25 12:44:00;;;;;;;6.87;1.90;;;13.30;64.00;;;;;;4454753;32;20193;-73
2022/02/25 12:46:33;;;;;;;7.10;1.40;;;13.10;64.80;;;;;;4455435;32;20196;-72
2022/02/25 12:49:01;;;;;;;6.17;1.50;;;12.70;65.40;;;;;;4457093;32;20177;-72
2022/02/25 12:51:28;;;;;;;4.47;1.60;;;13.20;63.10;;;;;;4457029;32;20201;-74
2022/02/25 12:54:02;;;;;;;5.60;1.73;;;13.60;59.90;;;;;;4456199;32;20531;-72
2022/02/25 12:56:38;;;;;;;3.50;1.60;;;13.30;59.50;;;;;;4456808;32;20189;-73
2022/02/25 12:59:07;;;;;;;4.77;1.60;;;13.10;60.70;;;;;;4454470;32;20173;-73
2022/02/25 13:01:37;;;;;;;4.07;1.60;;;12.40;62.70;;;;;;4457952;32;20142;-72
2022/02/25 13:04:14;;;;;;;4.47;1.50;;;12.40;63.90;;;;;;4454907;32;20182;-73
2022/02/25 13:06:42;;;;;;;2.83;1.37;;;12.10;63.40;;;;;;4454480;32;20236;-73
2022/02/25 13:09:12;;;;;;;4.03;1.43;;;11.00;66.40;;;;;;4454470;32;20215;-73